logo
Search for airport 
image banner adimage banner adimage banner ad
image banner ad

MMITA - Islita

Located in San Luis Rio Colorado, Mexico

ICAO - , IATA -

Data provided by Airmate  

General information

Coordinates: N32°23'38" W114°51'42"
Elevation is 98 feet MSL.
Magnetic variation is 10° East
View others Airports in Sonora

Operational data

Special qualification required
Current time UTC:
Current local time:
Weather at : KNYL - Yuma Mcas/Yuma Intl ( 38 km )
METAR: KNYL 180657Z AUTO 30005KT 10SM CLR 22/01 A2987 RMK AO2 SLP113 T02170011 403390150 $
TAF: TAF KNYL 1803/1903 19008KT 9999 SKC QNH2980INS FM181000 09006KT 9999 SKC QNH2983INS FM181500 16006KT 9999 SCT250 QNH2987INS BECMG 1819/1821 18010KT 9999 BKN250 QNH2977INS FM182300 18008KT 9999 BKN200 QNH2974INS 621906 AUTOMATED SENSOR METWATCH 1806 TIL 1814 T15/1814Z T34/1821Z
View NOTAMs / SUP AIP / TFR affecting this airport [VIEW]
Communications frequencies: [VIEW]

Runways:

Airport contact information

Address: San Luis Rio Colorado Mexico

Satellite view of MMITA